Home   Weather   City of Milan   Past weeks
Flag for USA

Past Weather in City of Milan, Georgia, USA — Yesterday and Last 2 Weeks

Currently: 61 °F. Light rain. Cloudy. (Weather station: Houston County Airport, USA). See more current weather

Past Weather in City of Milan — Graph

°F

City of Milan Temperature Yesterday

Maximum temperature yesterday: 70 °F (at 3:15 pm)
Minimum temperature yesterday: 36 °F (at 6:55 am)
Average temperature yesterday: 56 °F

High & Low Weather Summary for the Past Weeks

 TemperatureHumidityPressure
High70 °F (Feb 22, 3:15 pm)100% (Feb 11, 8:35 am)30.37 "Hg (Feb 11, 8:35 am)
Low29 °F (Feb 20, 6:15 am)19% (Feb 19, 3:55 pm)29.63 "Hg (Feb 12, 5:55 pm)
Average53 °F66%30.08 "Hg
* Reported Feb 8 7:15 am — Feb 23 7:15 am, City of Milan. Weather by CustomWeather, © 2024

Note: Actual official high and low records may vary slightly from our data, if they occured in-between our weather recording intervals... More about our weather records

City of Milan Weather History for the Previous 24 Hours

Scroll right to see more
 ConditionsComfort  
Time TempWeatherWind HumidityBarometerVisibility
7:15 am
Fri, Feb 23
60 °FCloudy.12 mph93%29.67 "Hg10 mi
6:55 am60 °FOvercast.13 mph93%29.67 "Hg10 mi
6:35 am60 °FLight rain. Mostly cloudy.14 mph93%29.67 "Hg10 mi
6:15 am59 °FOvercast.15 mph92%29.68 "Hg10 mi
5:55 am59 °FOvercast.13 mph91%29.68 "Hg10 mi
5:15 am59 °FOvercast.14 mph91%29.68 "Hg10 mi
4:35 am58 °FOvercast.12 mph92%29.69 "Hg10 mi
3:55 am59 °FOvercast.15 mph86%29.71 "Hg10 mi
3:15 am59 °FOvercast.15 mph84%29.72 "Hg10 mi
2:55 am59 °FMostly cloudy.15 mph82%29.73 "Hg10 mi
2:15 am59 °FMostly cloudy.17 mph80%29.74 "Hg10 mi
1:55 am59 °FOvercast.13 mph78%29.76 "Hg10 mi
1:35 am59 °FOvercast.14 mph76%29.77 "Hg10 mi
1:15 am60 °FOvercast.16 mph75%29.77 "Hg10 mi
12:55 am60 °FOvercast.14 mph73%29.78 "Hg10 mi
12:15 am60 °FMostly cloudy.14 mph70%29.78 "Hg10 mi
11:55 pm
Thu, Feb 22
60 °FMostly cloudy.14 mph68%29.79 "Hg10 mi
11:15 pm62 °FPassing clouds.10 mph70%29.81 "Hg10 mi
10:55 pm62 °FPartly cloudy.13 mph68%29.82 "Hg10 mi
10:15 pm63 °FClear.15 mph64%29.84 "Hg10 mi
9:35 pm63 °FClear.15 mph60%29.84 "Hg10 mi
9:15 pm63 °FClear.13 mph59%29.83 "Hg10 mi
8:55 pm64 °FClear.14 mph57%29.84 "Hg10 mi
8:15 pm64 °FClear.14 mph51%29.85 "Hg10 mi
7:55 pm63 °FClear.13 mph49%29.85 "Hg10 mi
6:35 pm64 °FClear.12 mph43%29.87 "Hg10 mi
6:15 pm65 °FSunny.14 mph40%29.87 "Hg10 mi
5:55 pm66 °FSunny.13 mph38%29.87 "Hg10 mi
5:35 pm67 °FSunny.14 mph37%29.88 "Hg10 mi
5:15 pm68 °FSunny.13 mph34%29.89 "Hg10 mi
4:55 pm69 °FSunny.16 mph32%29.89 "Hg10 mi
4:15 pm69 °FSunny.16 mph28%29.90 "Hg10 mi
3:55 pm69 °FSunny.17 mph28%29.90 "Hg10 mi
3:15 pm70 °FSunny.17 mph25%29.93 "Hg10 mi
2:55 pm69 °FSunny.16 mph26%29.94 "Hg10 mi
2:15 pm69 °FSunny.15 mph26%29.96 "Hg10 mi
1:35 pm68 °FSunny.17 mph29%29.99 "Hg10 mi
1:15 pm67 °FSunny.17 mph28%30.00 "Hg10 mi
12:55 pm68 °FSunny.16 mph28%30.02 "Hg10 mi
12:35 pm67 °FSunny.13 mph30%30.04 "Hg10 mi
12:15 pm65 °FSunny.17 mph29%30.06 "Hg10 mi
11:55 am64 °FSunny.15 mph31%30.07 "Hg10 mi
11:35 am64 °FSunny.13 mph31%30.08 "Hg10 mi
11:15 am63 °FSunny.14 mph34%30.10 "Hg10 mi
10:55 am62 °FSunny.13 mph39%30.11 "Hg10 mi
10:15 am58 °FSunny.12 mph51%30.11 "Hg10 mi
9:55 am56 °FSunny.8 mph54%30.11 "Hg10 mi
8:55 am48 °FSunny.7 mph70%30.14 "Hg10 mi
8:15 am42 °FSunny.3 mph85%30.14 "Hg7 mi
Weather by CustomWeather, © 2024

See weather overview